Time;durP1;ratioP1;P1;durP2;ratioP2;P2;SDS_P1;SDS_P2;PMS_P1;PMS_P2;Temp;Humidity;BMP_temperature;BMP_pressure;BME280_temperature;BME280_humidity;BME280_pressure;Samples;Min_cycle;Max_cycle;Signal;HPM_P1;HPM_P2
2023/04/22 00:00:10;;;;;;;20.07;8.53;;;;;;;10.02;80.30;94507.13;5090687;28;20202;-75
2023/04/22 00:02:37;;;;;;;17.00;8.03;;;;;;;10.03;79.98;94510.56;5111026;28;20236;-75
2023/04/22 00:05:04;;;;;;;15.27;8.63;;;;;;;9.95;80.16;94505.53;5111150;28;20173;-75
2023/04/22 00:07:30;;;;;;;12.23;8.17;;;;;;;9.94;80.91;94514.47;5111384;28;20173;-75
2023/04/22 00:09:55;;;;;;;13.30;8.33;;;;;;;9.92;80.46;94514.69;5104070;28;20181;-75
2023/04/22 00:12:21;;;;;;;19.33;9.57;;;;;;;9.89;80.35;94524.81;5090958;28;20178;-75
2023/04/22 00:14:46;;;;;;;15.70;9.00;;;;;;;9.81;80.58;94516.16;5090895;28;20169;-75
2023/04/22 00:17:12;;;;;;;11.70;7.77;;;;;;;9.74;81.11;94512.00;5091278;28;20938;-74
2023/04/22 00:19:37;;;;;;;12.80;7.87;;;;;;;9.71;81.71;94515.03;5090522;28;20281;-75
2023/04/22 00:22:03;;;;;;;15.93;9.07;;;;;;;9.65;81.84;94515.91;5090610;28;20196;-75
2023/04/22 00:24:29;;;;;;;15.67;8.83;;;;;;;9.67;81.85;94513.88;5090469;28;20231;-75
2023/04/22 00:26:54;;;;;;;18.93;9.27;;;;;;;9.65;81.99;94514.06;5090919;28;20817;-75
2023/04/22 00:29:19;;;;;;;16.40;10.00;;;;;;;9.62;81.73;94521.56;5090797;28;20215;-75
2023/04/22 00:31:45;;;;;;;15.60;9.67;;;;;;;9.59;81.75;94519.38;5090769;28;20219;-75
2023/04/22 00:34:10;;;;;;;19.53;10.70;;;;;;;9.53;82.14;94518.38;5090527;28;20173;-75
2023/04/22 00:36:36;;;;;;;17.73;10.30;;;;;;;9.49;82.10;94519.84;5090509;28;20185;-75
2023/04/22 00:39:01;;;;;;;18.47;11.17;;;;;;;9.48;82.23;94514.81;5090420;28;20176;-75
2023/04/22 00:41:27;;;;;;;19.27;10.67;;;;;;;9.44;82.21;94515.22;5090510;28;20205;-75
2023/04/22 00:43:53;;;;;;;17.00;9.30;;;;;;;9.38;82.07;94518.69;5090559;28;20181;-75
2023/04/22 00:46:19;;;;;;;21.37;9.63;;;;;;;9.33;82.69;94513.28;5090794;28;20170;-75
2023/04/22 00:48:45;;;;;;;15.47;10.00;;;;;;;9.29;82.68;94517.34;5090379;28;20256;-75
2023/04/22 00:51:11;;;;;;;14.93;9.07;;;;;;;9.25;82.75;94521.41;5090497;28;20184;-75
2023/04/22 00:53:36;;;;;;;15.40;10.03;;;;;;;9.14;83.07;94519.44;5093232;28;20181;-74
2023/04/22 00:56:03;;;;;;;20.00;11.63;;;;;;;8.99;83.11;94522.31;5094463;28;20200;-74
2023/04/22 00:58:28;;;;;;;21.57;12.90;;;;;;;8.94;83.54;94518.72;5094112;28;20178;-74
2023/04/22 01:00:54;;;;;;;24.27;14.95;;;;;;;8.90;84.06;94533.28;5092588;28;20456;-75
2023/04/22 01:03:21;;;;;;;21.03;13.30;;;;;;;8.87;84.35;94538.94;5094202;28;20182;-74
2023/04/22 01:05:49;;;;;;;18.17;10.77;;;;;;;8.80;84.25;94519.81;5092856;28;20204;-74
2023/04/22 01:08:15;;;;;;;23.93;10.83;;;;;;;8.93;83.97;94536.28;5093806;28;20174;-74
2023/04/22 01:10:41;;;;;;;19.43;11.33;;;;;;;8.92;83.78;94520.75;5094018;28;20172;-74
2023/04/22 01:13:07;;;;;;;21.83;11.57;;;;;;;8.96;83.46;94517.50;5094046;28;20223;-74
2023/04/22 01:15:33;;;;;;;21.98;13.27;;;;;;;8.96;83.54;94532.44;5093495;28;20412;-74
2023/04/22 01:18:00;;;;;;;19.13;11.93;;;;;;;8.80;83.55;94509.31;5093680;28;20545;-75
2023/04/22 01:20:28;;;;;;;20.23;11.83;;;;;;;8.97;83.85;94526.19;5093519;28;20269;-75
2023/04/22 01:22:58;;;;;;;23.70;12.40;;;;;;;8.97;83.58;94541.94;5092418;28;20586;-74
2023/04/22 01:25:27;;;;;;;24.37;12.33;;;;;;;8.88;83.58;94530.06;5093561;28;20177;-75
2023/04/22 01:27:53;;;;;;;20.90;10.67;;;;;;;8.91;83.80;94527.81;5093598;28;20165;-74
2023/04/22 01:30:18;;;;;;;16.77;9.73;;;;;;;8.92;83.62;94529.44;5093492;28;20534;-75
2023/04/22 01:32:44;;;;;;;22.03;9.00;;;;;;;8.80;83.65;94518.00;5093784;28;20659;-74
2023/04/22 01:35:09;;;;;;;19.17;11.63;;;;;;;8.84;84.42;94531.47;5092721;28;20439;-74
2023/04/22 01:37:35;;;;;;;12.27;8.03;;;;;;;8.86;84.19;94530.25;5093743;28;20284;-74
2023/04/22 01:40:01;;;;;;;18.37;9.00;;;;;;;8.88;83.78;94527.44;5094689;28;20186;-74
2023/04/22 01:42:27;;;;;;;14.53;9.07;;;;;;;8.86;83.83;94532.09;5094611;28;20166;-74
2023/04/22 01:44:52;;;;;;;15.40;8.40;;;;;;;8.83;83.36;94522.81;5094708;28;20580;-75
2023/04/22 01:47:18;;;;;;;13.23;8.13;;;;;;;8.73;83.62;94511.16;5094712;28;20185;-74
2023/04/22 01:49:43;;;;;;;20.00;8.87;;;;;;;8.85;83.49;94518.16;5094226;28;20169;-75
2023/04/22 01:52:09;;;;;;;20.70;8.77;;;;;;;8.88;83.52;94520.38;5093147;28;20688;-75
2023/04/22 01:54:34;;;;;;;15.93;8.13;;;;;;;8.88;83.43;94530.06;5092575;28;20170;-75
2023/04/22 01:57:07;;;;;;;14.70;8.27;;;;;;;8.88;83.39;94519.56;5093033;28;20173;-75
2023/04/22 01:59:33;;;;;;;16.83;9.97;;;;;;;8.89;83.37;94524.63;5093163;28;20193;-75
2023/04/22 02:01:58;;;;;;;12.90;8.67;;;;;;;8.88;83.34;94530.06;5092725;28;20217;-75
2023/04/22 02:04:24;;;;;;;13.33;9.03;;;;;;;8.91;83.95;94521.75;5092362;28;20178;-75
2023/04/22 02:06:49;;;;;;;17.43;8.60;;;;;;;8.94;84.32;94529.22;5092896;28;20230;-74
2023/04/22 02:09:15;;;;;;;23.77;11.67;;;;;;;8.92;84.25;94526.00;5092907;28;20224;-74
2023/04/22 02:11:40;;;;;;;20.00;11.50;;;;;;;8.92;84.07;94523.38;5092987;28;20190;-74
2023/04/22 02:14:05;;;;;;;24.77;13.13;;;;;;;8.88;84.20;94530.06;5092873;28;20301;-74
2023/04/22 02:16:31;;;;;;;22.27;12.40;;;;;;;8.84;84.11;94529.66;5092747;28;20173;-74
2023/04/22 02:18:56;;;;;;;21.77;12.07;;;;;;;8.84;84.37;94529.66;5092549;28;20227;-74
2023/04/22 02:21:22;;;;;;;25.37;12.97;;;;;;;8.84;84.19;94519.16;5092621;28;20189;-74
2023/04/22 02:23:47;;;;;;;25.60;11.97;;;;;;;8.80;84.44;94530.31;5092449;28;20166;-74
2023/04/22 02:26:13;;;;;;;27.00;13.40;;;;;;;8.75;84.54;94522.22;5092428;28;20201;-75
2023/04/22 02:28:38;;;;;;;23.03;14.10;;;;;;;8.65;85.08;94530.53;5090115;28;20950;-74
2023/04/22 02:31:04;;;;;;;19.37;11.87;;;;;;;8.70;85.26;94523.66;5092170;28;20166;-75
2023/04/22 02:33:29;;;;;;;22.93;13.13;;;;;;;8.76;84.72;94529.91;5092361;28;20182;-74
2023/04/22 02:35:54;;;;;;;19.43;12.10;;;;;;;8.83;84.90;94530.69;5092237;28;20169;-74
2023/04/22 02:38:20;;;;;;;20.40;12.33;;;;;;;8.91;84.42;94524.38;5092333;28;20162;-74
2023/04/22 02:40:45;;;;;;;25.37;14.07;;;;;;;8.90;84.28;94530.66;5092091;28;20202;-74
2023/04/22 02:43:11;;;;;;;28.70;13.47;;;;;;;8.91;84.79;94533.06;5091650;28;20415;-74
2023/04/22 02:45:36;;;;;;;23.03;11.67;;;;;;;8.96;84.47;94535.06;5092163;28;20268;-74
2023/04/22 02:48:02;;;;;;;16.97;9.90;;;;;;;8.97;84.23;94544.56;5091887;28;20178;-74
2023/04/22 02:50:27;;;;;;;17.17;10.43;;;;;;;8.95;83.70;94539.53;5091882;28;20408;-74
2023/04/22 02:52:53;;;;;;;17.40;9.47;;;;;;;8.90;83.58;94541.97;5092475;28;20173;-74
2023/04/22 02:55:18;;;;;;;15.57;8.60;;;;;;;8.89;83.69;94540.38;5091717;28;20386;-74
2023/04/22 02:57:44;;;;;;;14.47;8.50;;;;;;;8.89;83.88;94544.81;5091546;28;20180;-74
2023/04/22 03:00:10;;;;;;;16.10;9.43;;;;;;;8.88;83.21;94545.81;5091599;28;20338;-74
2023/04/22 03:02:35;;;;;;;16.13;9.33;;;;;;;8.85;83.30;94546.22;5091526;28;20300;-74
2023/04/22 03:05:01;;;;;;;15.60;9.73;;;;;;;8.69;84.02;94550.91;5090486;28;20401;-74
2023/04/22 03:07:27;;;;;;;36.53;26.03;;;;;;;8.26;84.89;94528.78;5090395;28;20477;-74
2023/04/22 03:09:54;;;;;;;25.77;16.58;;;;;;;8.17;86.83;94543.94;5090310;28;20935;-74
2023/04/22 03:12:20;;;;;;;16.53;11.33;;;;;;;8.29;86.21;94537.06;5090323;28;20404;-74
2023/04/22 03:14:45;;;;;;;16.33;11.13;;;;;;;8.49;85.77;94547.53;5090848;28;20796;-74
2023/04/22 03:17:11;;;;;;;14.73;9.37;;;;;;;8.60;84.51;94546.91;5090423;28;20220;-75
2023/04/22 03:19:36;;;;;;;18.63;10.80;;;;;;;8.66;84.56;94546.06;5091273;28;20194;-74
2023/04/22 03:22:01;;;;;;;16.77;11.13;;;;;;;8.75;84.56;94551.91;5083602;28;20721;-74
2023/04/22 03:24:27;;;;;;;18.27;11.87;;;;;;;8.78;84.45;94551.50;5091375;28;20166;-74
2023/04/22 03:26:52;;;;;;;13.03;9.37;;;;;;;8.81;84.20;94552.91;5091380;28;20533;-74
2023/04/22 03:29:17;;;;;;;14.47;10.37;;;;;;;8.84;83.75;94555.91;5091202;28;20173;-74
2023/04/22 03:31:43;;;;;;;13.07;9.77;;;;;;;8.83;83.37;94553.47;5091264;28;20254;-75
2023/04/22 03:34:08;;;;;;;15.93;10.50;;;;;;;8.83;83.43;94559.53;5091570;28;20181;-75
2023/04/22 03:36:33;;;;;;;14.07;9.50;;;;;;;8.73;83.33;94537.41;5091271;28;20192;-75
2023/04/22 03:38:59;;;;;;;17.37;9.90;;;;;;;8.80;83.75;94559.97;5091420;28;20692;-75
2023/04/22 03:41:25;;;;;;;14.73;9.23;;;;;;;8.78;83.47;94566.44;5091446;28;20201;-75
2023/04/22 03:43:51;;;;;;;17.63;10.82;;;;;;;8.77;84.16;94564.81;5089358;28;20412;-74
2023/04/22 03:46:16;;;;;;;12.03;9.13;;;;;;;8.78;83.65;94558.56;5091223;28;20222;-74
2023/04/22 03:48:42;;;;;;;15.20;10.20;;;;;;;8.76;83.71;94569.25;5091100;28;20177;-74
2023/04/22 03:51:07;;;;;;;15.80;10.67;;;;;;;8.65;83.83;94541.84;5090706;28;20412;-74
2023/04/22 03:53:32;;;;;;;16.83;10.73;;;;;;;8.83;83.39;94570.03;5091053;28;20260;-74
2023/04/22 03:55:58;;;;;;;23.73;11.30;;;;;;;8.81;83.52;94566.03;5100095;28;20179;-74
2023/04/22 03:58:23;;;;;;;17.77;10.90;;;;;;;8.84;83.69;94571.66;5106855;28;21040;-74
2023/04/22 04:00:49;;;;;;;16.73;11.53;;;;;;;8.89;84.17;94578.94;5090095;28;20194;-75
2023/04/22 04:03:14;;;;;;;21.00;12.20;;;;;;;8.96;83.65;94584.94;5090454;28;20222;-74
2023/04/22 04:05:39;;;;;;;20.00;12.10;;;;;;;9.03;83.56;94575.22;5090605;28;20177;-75
2023/04/22 04:08:05;;;;;;;22.43;12.90;;;;;;;9.07;83.54;94585.13;5090914;28;20177;-75
2023/04/22 04:10:31;;;;;;;26.70;12.00;;;;;;;9.18;83.01;94569.69;5090514;28;20211;-74
2023/04/22 04:12:56;;;;;;;28.90;13.53;;;;;;;9.45;82.45;94579.06;5090348;28;20178;-74
2023/04/22 04:15:22;;;;;;;20.33;12.23;;;;;;;9.64;81.44;94582.59;5090766;28;20169;-75
2023/04/22 04:17:47;;;;;;;31.30;12.50;;;;;;;9.87;81.35;94582.03;5090612;28;20169;-75
2023/04/22 04:20:14;;;;;;;19.37;12.73;;;;;;;10.10;80.71;94580.47;5090073;28;20726;-75
2023/04/22 04:22:40;;;;;;;23.70;12.67;;;;;;;10.43;79.37;94588.13;5090331;28;20198;-75
2023/04/22 04:25:06;;;;;;;18.77;13.03;;;;;;;10.78;78.72;94591.03;5090548;28;20201;-75
2023/04/22 04:27:32;;;;;;;20.37;13.63;;;;;;;11.19;77.48;94593.00;5091127;28;20176;-75
2023/04/22 04:29:57;;;;;;;20.33;12.67;;;;;;;11.35;75.65;94560.75;5094900;28;20165;-75
2023/04/22 04:32:23;;;;;;;28.57;14.93;;;;;;;11.94;74.14;94603.19;5094966;28;20540;-75
2023/04/22 04:34:49;;;;;;;27.40;17.03;;;;;;;12.31;73.31;94602.00;5094257;28;20193;-74
2023/04/22 04:37:15;;;;;;;25.87;15.30;;;;;;;12.69;72.14;94604.22;5094674;28;20185;-74
2023/04/22 04:39:42;;;;;;;31.03;18.50;;;;;;;12.94;70.29;94595.25;5094251;28;20193;-74
2023/04/22 04:42:08;;;;;;;31.83;18.80;;;;;;;13.39;69.20;94614.75;5093971;28;20170;-74
2023/04/22 04:44:34;;;;;;;27.93;13.20;;;;;;;13.71;67.94;94623.03;5093487;28;20255;-75
2023/04/22 04:47:00;;;;;;;27.00;14.73;;;;;;;14.07;66.59;94631.63;5094224;28;20174;-74
2023/04/22 04:49:25;;;;;;;22.43;13.13;;;;;;;14.21;65.60;94609.91;5094201;28;20674;-73
2023/04/22 04:51:51;;;;;;;18.90;12.30;;;;;;;14.61;65.29;94636.31;5093720;28;20183;-73
2023/04/22 04:54:16;;;;;;;23.47;10.90;;;;;;;14.87;64.48;94634.84;5093889;28;20223;-74
2023/04/22 04:56:42;;;;;;;18.43;10.60;;;;;;;15.17;63.69;94637.13;5093172;28;20227;-74
2023/04/22 04:59:08;;;;;;;19.50;10.03;;;;;;;15.23;61.79;94612.28;5094521;28;20205;-74
2023/04/22 05:01:34;;;;;;;22.17;9.40;;;;;;;15.60;61.98;94644.34;5093831;28;20217;-74
2023/04/22 05:03:59;;;;;;;14.80;7.80;;;;;;;15.91;61.35;94644.72;5094153;28;20178;-74
2023/04/22 05:06:25;;;;;;;16.73;7.20;;;;;;;16.22;59.99;94641.31;5094010;28;20216;-74
2023/04/22 05:08:51;;;;;;;12.87;6.87;;;;;;;16.17;58.66;94620.81;5093997;28;20178;-75
2023/04/22 05:11:16;;;;;;;11.32;6.60;;;;;;;16.34;57.35;94646.50;5093919;28;20161;-75
2023/04/22 05:13:42;;;;;;;12.17;6.63;;;;;;;17.07;55.82;94650.28;5093971;28;20170;-75
2023/04/22 05:16:07;;;;;;;12.88;6.47;;;;;;;18.45;52.90;94647.97;5094260;28;20169;-75
2023/04/22 05:18:32;;;;;;;10.50;6.60;;;;;;;19.85;48.94;94648.09;5094331;28;20280;-76
2023/04/22 05:20:58;;;;;;;14.32;6.78;;;;;;;20.91;47.00;94645.91;5094173;28;20234;-76
2023/04/22 05:23:25;;;;;;;9.65;6.82;;;;;;;21.63;44.88;94655.66;5094165;28;20161;-76
2023/04/22 05:25:50;;;;;;;11.38;7.20;;;;;;;22.51;43.75;94647.09;5093998;28;20176;-76
2023/04/22 05:28:15;;;;;;;11.95;7.10;;;;;;;23.13;41.43;94649.66;5094094;28;20170;-76
2023/04/22 05:30:41;;;;;;;17.60;7.22;;;;;;;23.47;41.26;94619.78;5093805;28;20649;-76
2023/04/22 05:33:07;;;;;;;11.82;7.45;;;;;;;23.56;40.22;94653.75;5094039;28;20176;-76
2023/04/22 05:35:33;;;;;;;14.13;6.70;;;;;;;23.77;40.47;94651.50;5093715;28;20270;-75
2023/04/22 05:37:59;;;;;;;15.20;7.82;;;;;;;24.06;40.21;94645.78;5093698;28;20180;-76
2023/04/22 05:40:24;;;;;;;11.07;7.13;;;;;;;24.20;38.39;94649.28;5092304;28;20588;-76
2023/04/22 05:42:50;;;;;;;9.20;6.38;;;;;;;24.55;37.49;94652.34;5093634;28;20162;-76
2023/04/22 05:45:16;;;;;;;10.02;6.22;;;;;;;25.24;38.13;94651.00;5093381;28;20549;-76
2023/04/22 05:47:42;;;;;;;9.25;6.57;;;;;;;25.91;35.29;94648.97;5093714;28;20177;-76
2023/04/22 05:50:07;;;;;;;10.15;6.68;;;;;;;25.90;34.15;94650.06;5094207;28;20174;-77
2023/04/22 05:52:33;;;;;;;13.68;7.20;;;;;;;26.16;33.70;94660.16;5094027;28;20651;-77
2023/04/22 05:55:00;;;;;;;9.07;6.03;;;;;;;26.63;34.21;94655.84;5093857;28;20528;-76
2023/04/22 05:57:25;;;;;;;9.38;5.97;;;;;;;27.23;32.48;94647.75;5094147;28;20215;-77
2023/04/22 05:59:51;;;;;;;11.25;7.18;;;;;;;27.62;32.39;94654.84;5093286;28;20201;-77
2023/04/22 06:02:16;;;;;;;12.43;7.57;;;;;;;28.00;32.23;94654.06;5098234;28;20756;-77
2023/04/22 06:04:42;;;;;;;10.25;7.65;;;;;;;28.02;31.56;94649.13;5106663;28;20166;-80
2023/04/22 06:07:07;;;;;;;12.60;7.22;;;;;;;28.11;31.65;94644.44;5093975;28;20235;-79
2023/04/22 06:09:33;;;;;;;11.52;6.80;;;;;;;27.71;31.65;94649.41;5093982;28;20183;-79
2023/04/22 06:11:58;;;;;;;14.50;8.45;;;;;;;27.42;33.23;94650.06;5093678;28;20181;-80
2023/04/22 06:14:24;;;;;;;12.65;8.30;;;;;;;27.34;32.68;94643.56;5094059;28;20597;-79
2023/04/22 06:16:51;;;;;;;9.80;7.43;;;;;;;27.16;31.30;94642.00;5093864;28;20700;-80
2023/04/22 06:19:16;;;;;;;10.35;7.93;;;;;;;27.28;32.48;94646.78;5095332;28;20181;-78
2023/04/22 06:21:42;;;;;;;9.65;6.70;;;;;;;26.94;31.06;94648.41;5093298;28;20625;-79
2023/04/22 06:24:09;;;;;;;11.65;6.57;;;;;;;26.25;32.77;94639.38;5093009;28;20216;-78
2023/04/22 06:26:40;;;;;;;14.55;7.40;;;;;;;25.82;34.97;94639.25;5093444;28;20197;-79
2023/04/22 06:29:05;;;;;;;10.57;8.38;;;;;;;25.55;34.85;94641.00;5073786;28;20536;-78
2023/04/22 06:31:31;;;;;;;13.55;7.63;;;;;;;25.31;36.18;94637.88;5101823;28;20173;-78
2023/04/22 06:33:57;;;;;;;11.48;8.57;;;;;;;25.05;36.73;94642.31;5092980;28;20332;-76
2023/04/22 06:36:22;;;;;;;10.70;7.75;;;;;;;24.82;37.59;94644.94;5091725;28;20684;-77
2023/04/22 06:38:48;;;;;;;10.52;6.53;;;;;;;24.79;38.17;94645.56;5091775;28;20173;-78
2023/04/22 06:41:14;;;;;;;11.50;6.85;;;;;;;24.49;37.89;94637.38;5090801;28;20182;-77
2023/04/22 06:43:39;;;;;;;12.20;6.40;;;;;;;24.44;38.31;94641.78;5090486;28;20662;-77
2023/04/22 06:46:04;;;;;;;7.72;5.10;;;;;;;23.93;37.71;94644.72;5075889;28;20181;-78
2023/04/22 06:48:30;;;;;;;7.28;5.00;;;;;;;23.34;38.32;94640.16;5091213;28;20192;-77
2023/04/22 06:50:56;;;;;;;5.68;4.90;;;;;;;23.18;40.27;94641.50;5090811;28;20174;-77
2023/04/22 06:53:21;;;;;;;6.65;4.75;;;;;;;22.88;40.07;94643.63;5091897;28;20222;-77
2023/04/22 06:55:47;;;;;;;8.93;4.93;;;;;;;22.79;41.17;94645.38;5091522;28;20610;-77
2023/04/22 06:58:12;;;;;;;10.90;5.55;;;;;;;22.48;40.89;94645.00;5092074;28;20761;-77
2023/04/22 07:00:38;;;;;;;6.10;4.20;;;;;;;21.81;40.16;94635.38;5091154;28;20202;-77
2023/04/22 07:03:03;;;;;;;6.68;3.95;;;;;;;21.58;42.26;94646.91;5090572;28;20213;-77
2023/04/22 07:05:28;;;;;;;10.15;4.75;;;;;;;21.75;42.56;94648.03;5091272;28;20307;-77
2023/04/22 07:07:54;;;;;;;9.40;4.95;;;;;;;22.02;43.75;94650.16;5091207;28;20177;-77
2023/04/22 07:10:19;;;;;;;6.93;4.38;;;;;;;22.03;42.30;94640.25;5091068;28;20681;-79
2023/04/22 07:12:45;;;;;;;8.00;4.53;;;;;;;22.12;43.42;94646.56;5091042;28;20181;-78
2023/04/22 07:15:10;;;;;;;7.50;4.22;;;;;;;22.13;42.13;94648.97;5091260;28;20169;-78
2023/04/22 07:17:36;;;;;;;8.52;5.00;;;;;;;22.14;42.37;94647.09;5092297;28;20181;-78
2023/04/22 07:20:01;;;;;;;6.10;5.15;;;;;;;21.91;41.52;94645.97;5092610;28;20197;-79
2023/04/22 07:22:26;;;;;;;7.03;5.03;;;;;;;21.73;42.16;94657.44;5092943;28;20227;-79
2023/04/22 07:24:52;;;;;;;6.38;5.10;;;;;;;21.39;42.26;94652.19;5092997;28;20631;-79
2023/04/22 07:27:17;;;;;;;9.63;4.68;;;;;;;21.23;44.27;94638.13;5092912;28;20183;-83
2023/04/22 07:29:43;;;;;;;5.68;4.40;;;;;;;21.68;43.55;94652.16;5092844;28;20178;-79
2023/04/22 07:32:08;;;;;;;6.53;4.43;;;;;;;21.80;41.48;94652.53;5092611;28;20613;-80
2023/04/22 07:34:34;;;;;;;8.27;4.20;;;;;;;21.20;43.20;94649.41;5092812;28;20631;-79
2023/04/22 07:36:59;;;;;;;8.25;4.57;;;;;;;21.05;43.34;94644.97;5092705;28;20176;-79
2023/04/22 07:39:25;;;;;;;6.53;4.20;;;;;;;21.01;42.65;94649.28;5092465;28;20185;-78
2023/04/22 07:41:50;;;;;;;4.65;3.65;;;;;;;20.75;42.52;94639.06;5092132;28;20706;-77
2023/04/22 07:44:20;;;;;;;8.25;4.90;;;;;;;20.62;43.07;94643.97;5091798;28;20187;-79
2023/04/22 07:46:46;;;;;;;4.88;3.90;;;;;;;21.04;43.57;94650.59;5092030;28;20725;-78
2023/04/22 07:49:12;;;;;;;6.72;4.32;;;;;;;21.04;43.08;94647.91;5091583;28;20178;-77
2023/04/22 07:51:38;;;;;;;9.40;4.30;;;;;;;21.04;41.89;94640.69;5091368;28;20170;-79
2023/04/22 07:54:04;;;;;;;15.50;5.55;;;;;;;20.29;43.44;94632.13;5090993;28;20173;-78
2023/04/22 07:56:29;;;;;;;5.40;4.32;;;;;;;19.91;45.26;94641.66;5089586;28;20307;-78
2023/04/22 07:58:55;;;;;;;10.80;4.20;;;;;;;20.09;44.80;94637.56;5088516;28;20226;-78
2023/04/22 08:01:20;;;;;;;7.00;4.20;;;;;;;20.38;44.09;94631.56;5088054;28;20713;-78
2023/04/22 08:03:46;;;;;;;7.88;4.00;;;;;;;20.61;46.13;94629.00;5087374;28;20563;-78
2023/04/22 08:06:11;;;;;;;4.93;3.78;;;;;;;21.00;44.71;94630.84;5088473;28;20181;-79
2023/04/22 08:08:36;;;;;;;18.38;4.25;;;;;;;21.00;42.66;94626.28;5088019;28;20213;-79
2023/04/22 08:11:02;;;;;;;8.43;4.43;;;;;;;21.36;42.72;94634.00;5088133;28;20851;-79
2023/04/22 08:13:27;;;;;;;7.20;4.05;;;;;;;21.69;44.78;94627.75;5088039;28;20616;-79
2023/04/22 08:15:53;;;;;;;7.60;4.13;;;;;;;21.99;41.52;94637.31;5088384;28;20172;-79
2023/04/22 08:18:18;;;;;;;8.55;4.10;;;;;;;22.04;40.48;94637.28;5089299;28;20169;-79
2023/04/22 08:20:45;;;;;;;6.88;3.97;;;;;;;21.65;39.19;94573.13;5089877;28;20224;-79
2023/04/22 08:23:11;;;;;;;10.68;3.97;;;;;;;21.92;38.88;94636.84;5090020;28;20665;-79
2023/04/22 08:25:36;;;;;;;8.68;4.32;;;;;;;21.43;39.33;94613.84;5089781;28;20165;-78
2023/04/22 08:28:02;;;;;;;8.48;3.75;;;;;;;21.34;39.46;94625.47;5089728;28;20193;-79
2023/04/22 08:30:27;;;;;;;4.40;3.75;;;;;;;20.88;40.09;94623.16;5090889;28;20666;-78
2023/04/22 08:32:53;;;;;;;8.43;3.53;;;;;;;20.64;42.74;94615.06;5090294;28;20607;-77
2023/04/22 08:35:19;;;;;;;10.00;3.85;;;;;;;20.77;45.25;94618.16;5089932;28;20172;-77
2023/04/22 08:37:44;;;;;;;6.05;3.10;;;;;;;21.09;43.67;94611.22;5089735;28;20173;-77
2023/04/22 08:40:10;;;;;;;6.72;3.53;;;;;;;21.33;41.72;94605.09;5089287;28;20246;-77
2023/04/22 08:42:36;;;;;;;7.40;4.00;;;;;;;21.32;41.71;94606.19;5089761;28;20693;-77
2023/04/22 08:45:05;;;;;;;7.00;3.50;;;;;;;21.12;40.23;94599.13;5089098;28;20235;-77
2023/04/22 08:47:34;;;;;;;6.88;3.63;;;;;;;20.71;40.31;94579.97;5090117;28;20181;-77
2023/04/22 08:50:02;;;;;;;12.43;4.00;;;;;;;20.77;43.17;94599.44;5090454;28;20554;-77
2023/04/22 08:52:29;;;;;;;8.93;3.75;;;;;;;21.05;43.86;94590.63;5087944;28;20158;-77
2023/04/22 08:54:55;;;;;;;10.68;4.10;;;;;;;21.37;43.06;94603.44;5071142;28;20599;-77
2023/04/22 08:57:21;;;;;;;8.85;3.50;;;;;;;21.45;43.20;94594.78;5089395;28;20188;-77
2023/04/22 08:59:48;;;;;;;10.23;3.22;;;;;;;21.66;41.36;94596.16;5090439;28;20180;-77
2023/04/22 09:02:18;;;;;;;10.88;3.03;;;;;;;22.18;42.35;94592.56;5090518;28;20275;-77
2023/04/22 09:04:46;;;;;;;7.07;3.58;;;;;;;22.48;42.85;94598.59;5090255;28;20166;-77
2023/04/22 09:07:14;;;;;;;8.10;4.05;;;;;;;22.56;40.74;94595.25;5090184;28;20197;-77
2023/04/22 09:09:40;;;;;;;6.90;3.92;;;;;;;21.31;39.28;94592.00;5091044;28;20165;-77
2023/04/22 09:12:06;;;;;;;7.40;3.90;;;;;;;20.39;41.16;94582.34;5090539;28;20208;-77
2023/04/22 09:14:32;;;;;;;10.85;4.07;;;;;;;20.13;47.41;94573.69;5094792;28;20192;-77
2023/04/22 09:16:58;;;;;;;4.35;3.45;;;;;;;20.77;41.51;94581.50;5114837;28;20167;-77
2023/04/22 09:19:24;;;;;;;7.22;3.38;;;;;;;21.18;41.25;94586.53;5114582;28;20537;-77
2023/04/22 09:21:50;;;;;;;6.22;3.55;;;;;;;21.55;40.28;94592.00;5114326;28;20686;-77
2023/04/22 09:24:15;;;;;;;9.52;4.05;;;;;;;21.45;40.14;94584.06;5114556;28;20555;-77
2023/04/22 09:26:41;;;;;;;10.27;3.80;;;;;;;21.50;43.38;94580.56;5114490;28;20172;-77
2023/04/22 09:29:12;;;;;;;8.93;3.92;;;;;;;21.74;42.43;94575.97;5114161;28;20161;-77
2023/04/22 09:31:37;;;;;;;7.72;3.63;;;;;;;21.58;41.94;94579.91;5114898;28;20188;-77
2023/04/22 09:34:04;;;;;;;8.05;4.10;;;;;;;21.27;42.79;94571.44;5114722;28;20279;-77
2023/04/22 09:36:34;;;;;;;9.77;3.80;;;;;;;20.97;42.22;94567.16;5114489;28;20161;-77
2023/04/22 09:39:03;;;;;;;7.38;3.70;;;;;;;20.96;43.80;94565.56;5114430;28;20154;-77
2023/04/22 09:41:38;;;;;;;11.00;3.55;;;;;;;20.99;41.32;94567.66;5114547;28;20193;-77
2023/04/22 09:44:07;;;;;;;6.72;3.85;;;;;;;21.17;44.37;94567.00;5106356;28;20196;-77
2023/04/22 09:46:34;;;;;;;4.97;3.92;;;;;;;21.48;42.34;94561.28;5094156;28;20173;-77
2023/04/22 09:49:00;;;;;;;12.18;3.47;;;;;;;21.66;42.44;94558.66;5093726;28;20191;-77
2023/04/22 09:51:26;;;;;;;6.45;3.83;;;;;;;21.82;42.73;94543.16;5094019;28;20241;-77
2023/04/22 09:54:07;;;;;;;8.20;3.78;;;;;;;22.14;40.18;94569.31;5093580;28;20544;-77
2023/04/22 09:56:52;;;;;;;6.32;3.20;;;;;;;22.00;40.59;94568.41;5093787;28;20166;-77
2023/04/22 09:59:27;;;;;;;2.85;2.45;;;;;;;21.51;39.04;94568.75;5093610;28;20194;-77
2023/04/22 10:01:58;;;;;;;3.05;2.75;;;;;;;20.74;39.31;94549.97;5093020;28;20229;-77
2023/04/22 10:04:24;;;;;;;4.22;2.50;;;;;;;20.26;39.79;94555.13;5099134;28;20609;-77
2023/04/22 10:06:53;;;;;;;5.03;3.20;;;;;;;19.89;40.16;94541.50;5095847;28;20202;-77
2023/04/22 10:09:24;;;;;;;5.88;2.50;;;;;;;19.87;41.31;94539.09;5097030;28;20170;-80
2023/04/22 10:11:55;;;;;;;5.65;2.80;;;;;;;19.91;43.45;94523.28;5103739;28;20161;-77
2023/04/22 10:14:21;;;;;;;4.18;2.28;;;;;;;20.30;44.32;94537.47;5097023;28;20162;-77
2023/04/22 10:16:48;;;;;;;3.97;2.75;;;;;;;20.50;43.52;94539.19;5084258;28;20181;-78
2023/04/22 10:19:34;;;;;;;6.18;2.92;;;;;;;20.62;43.55;94545.00;5089041;28;20170;-77
2023/04/22 10:22:02;;;;;;;3.00;1.75;;;;;;;20.64;37.92;94544.72;5086482;28;20535;-79
2023/04/22 10:24:33;;;;;;;5.03;1.88;;;;;;;20.58;35.98;94537.81;5104940;28;20895;-80
2023/04/22 10:27:04;;;;;;;4.10;2.15;;;;;;;20.44;39.19;94534.97;5089857;28;20165;-79
2023/04/22 10:29:37;;;;;;;6.47;2.33;;;;;;;20.47;40.58;94531.75;5104924;28;20591;-79
2023/04/22 10:32:24;;;;;;;4.30;2.53;;;;;;;20.47;43.41;94515.69;5094069;28;20604;-80
2023/04/22 10:35:06;;;;;;;3.40;2.67;;;;;;;20.63;37.39;94532.41;5086148;28;20173;-78
2023/04/22 10:37:32;;;;;;;3.30;2.05;;;;;;;20.15;36.50;94510.81;5091042;28;20234;-78
2023/04/22 10:40:06;;;;;;;4.28;2.45;;;;;;;19.69;39.24;94526.38;5094273;28;20208;-79
2023/04/22 10:42:32;;;;;;;4.97;2.60;;;;;;;19.56;38.77;94510.94;5100335;28;20225;-79
2023/04/22 10:45:02;;;;;;;5.65;2.30;;;;;;;19.57;37.66;94534.69;5104069;28;20182;-77
2023/04/22 10:47:33;;;;;;;7.05;2.45;;;;;;;19.48;38.32;94524.84;5096543;28;20285;-77
2023/04/22 10:50:19;;;;;;;4.28;1.73;;;;;;;19.11;37.84;94493.25;5101365;28;20642;-77
2023/04/22 10:52:48;;;;;;;2.45;2.25;;;;;;;19.32;39.54;94525.97;5107755;28;20646;-76
2023/04/22 10:55:14;;;;;;;3.78;2.20;;;;;;;19.14;38.55;94524.69;5094090;28;20204;-77
2023/04/22 10:57:42;;;;;;;2.70;2.20;;;;;;;19.03;38.36;94499.91;5100799;28;20213;-78
2023/04/22 11:00:23;;;;;;;2.33;2.05;;;;;;;19.27;39.66;94518.78;5091905;28;20229;-77
2023/04/22 11:03:09;;;;;;;2.75;1.90;;;;;;;19.22;38.26;94518.78;5092830;28;20221;-77
2023/04/22 11:05:35;;;;;;;4.90;2.00;;;;;;;19.21;38.57;94520.66;5105588;28;20188;-77
2023/04/22 11:08:07;;;;;;;2.78;2.22;;;;;;;19.06;38.10;94515.38;5096892;28;20173;-77
2023/04/22 11:10:39;;;;;;;5.80;2.33;;;;;;;18.95;37.71;94515.69;5092205;28;20597;-79
2023/04/22 11:13:06;;;;;;;3.63;2.20;;;;;;;18.97;39.62;94516.22;5092181;28;20253;-77
2023/04/22 11:15:33;;;;;;;3.50;1.65;;;;;;;18.93;39.13;94501.84;5103165;28;20243;-78
2023/04/22 11:17:59;;;;;;;3.58;2.20;;;;;;;18.85;37.74;94503.19;5097617;28;20217;-77
2023/04/22 11:20:24;;;;;;;2.58;2.20;;;;;;;18.79;39.18;94521.06;5095333;28;20225;-77
2023/04/22 11:22:54;;;;;;;4.43;1.73;;;;;;;18.60;39.63;94540.53;5101219;28;20191;-77
2023/04/22 11:25:22;;;;;;;1.60;1.50;;;;;;;18.43;40.05;94546.13;5097700;28;20169;-78